createdAt,value
2018-06-22T00:02:11.338Z,14.10
2018-06-22T00:04:41.872Z,14.50
2018-06-22T00:07:12.484Z,14.60
2018-06-22T00:09:43.323Z,14.40
2018-06-22T00:12:13.901Z,14.20
2018-06-22T00:14:44.484Z,13.90
2018-06-22T00:17:15.119Z,14.00
2018-06-22T00:19:45.650Z,14.20
2018-06-22T00:22:16.094Z,14.00
2018-06-22T00:24:46.709Z,14.10
2018-06-22T00:27:17.136Z,14.10
2018-06-22T00:29:47.614Z,13.80
2018-06-22T00:32:18.176Z,13.40
2018-06-22T00:34:49.471Z,13.30
2018-06-22T00:37:26.773Z,13.10
2018-06-22T00:39:57.269Z,13.10
2018-06-22T00:42:27.852Z,13.10
2018-06-22T00:44:58.345Z,13.00
2018-06-22T00:47:28.934Z,12.80
2018-06-22T00:49:59.563Z,12.70
2018-06-22T00:52:30.685Z,12.50
2018-06-22T00:55:01.161Z,12.40
2018-06-22T00:57:31.621Z,12.60
2018-06-22T01:00:02.202Z,12.40
2018-06-22T01:02:32.625Z,12.40
2018-06-22T01:05:03.311Z,12.30
2018-06-22T01:07:34.000Z,12.20
2018-06-22T01:10:04.720Z,12.10
2018-06-22T01:12:35.150Z,11.90
2018-06-22T01:15:05.806Z,12.00
2018-06-22T01:20:06.497Z,12.10
2018-06-22T01:22:36.905Z,12.10
2018-06-22T01:25:07.311Z,12.00
2018-06-22T01:27:37.813Z,12.20
2018-06-22T01:30:08.559Z,12.20
2018-06-22T01:32:39.746Z,12.30
2018-06-22T01:35:10.432Z,12.20
2018-06-22T01:37:41.177Z,12.20
2018-06-22T01:42:42.077Z,11.90
2018-06-22T01:45:12.888Z,12.00
2018-06-22T01:47:43.354Z,12.10
2018-06-22T01:50:14.122Z,12.30
2018-06-22T01:52:44.782Z,12.20
2018-06-22T01:55:15.580Z,11.90
2018-06-22T01:57:46.069Z,12.00
2018-06-22T02:00:17.618Z,11.80
2018-06-22T02:02:48.215Z,11.40
2018-06-22T02:05:18.824Z,11.30
2018-06-22T02:07:49.408Z,11.40
2018-06-22T02:10:20.089Z,11.50
2018-06-22T02:12:51.270Z,11.60
2018-06-22T02:15:22.093Z,11.50
2018-06-22T02:17:52.571Z,11.30
2018-06-22T02:20:23.161Z,11.20
2018-06-22T02:22:53.785Z,11.10
2018-06-22T02:25:24.477Z,11.10
2018-06-22T02:27:55.048Z,11.10
2018-06-22T02:30:25.635Z,11.10
2018-06-22T02:32:56.516Z,11.10
2018-06-22T02:35:27.065Z,11.20
2018-06-22T02:37:57.660Z,11.40
2018-06-22T02:42:58.212Z,11.50
2018-06-22T02:45:28.675Z,11.50
2018-06-22T02:47:59.140Z,11.40
2018-06-22T02:50:30.141Z,11.30
2018-06-22T02:53:00.854Z,11.30
2018-06-22T02:55:31.579Z,11.30
2018-06-22T03:00:32.345Z,11.30
2018-06-22T03:03:02.937Z,11.30
2018-06-22T03:05:33.418Z,11.20
2018-06-22T03:08:04.184Z,11.20
2018-06-22T03:10:35.003Z,11.20
2018-06-22T03:13:05.612Z,11.20
2018-06-22T03:15:36.321Z,11.10
2018-06-22T03:18:06.963Z,11.20
2018-06-22T03:20:37.388Z,11.30
2018-06-22T03:28:08.240Z,11.50
2018-06-22T03:30:38.977Z,11.60
2018-06-22T03:33:09.588Z,11.70
2018-06-22T03:35:40.144Z,11.70
2018-06-22T03:38:10.746Z,11.70
2018-06-22T03:40:41.339Z,11.70
2018-06-22T03:43:12.131Z,11.70
2018-06-22T03:45:42.880Z,11.80
2018-06-22T03:48:13.389Z,11.80
2018-06-22T03:50:44.384Z,11.80
2018-06-22T03:53:14.974Z,11.60
2018-06-22T03:55:45.653Z,11.70
2018-06-22T03:58:16.355Z,11.80
2018-06-22T04:03:17.260Z,11.80
2018-06-22T04:05:47.917Z,11.80
2018-06-22T04:08:18.512Z,11.80
2018-06-22T04:10:49.218Z,11.90
2018-06-22T04:13:19.969Z,11.80
2018-06-22T04:15:50.605Z,11.80
2018-06-22T04:18:21.186Z,11.90
2018-06-22T04:20:51.923Z,12.00
2018-06-22T04:25:52.976Z,12.00
2018-06-22T04:28:23.695Z,12.10
2018-06-22T04:30:54.369Z,12.10
2018-06-22T04:33:25.000Z,12.20
2018-06-22T04:35:55.491Z,12.20
2018-06-22T04:38:26.346Z,12.40
2018-06-22T04:40:56.969Z,12.40
2018-06-22T04:43:27.696Z,12.50
2018-06-22T04:45:59.043Z,12.60
2018-06-22T04:48:30.370Z,12.80
2018-06-22T04:51:01.092Z,12.90
2018-06-22T04:53:31.883Z,12.90
2018-06-22T04:56:02.529Z,12.90
2018-06-22T04:58:33.093Z,12.90
2018-06-22T05:01:03.682Z,12.80
2018-06-22T05:03:34.909Z,12.80
2018-06-22T05:06:05.673Z,12.90
2018-06-22T05:08:36.408Z,13.00
2018-06-22T05:11:07.096Z,14.00
2018-06-22T05:13:37.782Z,15.00
2018-06-22T05:16:08.513Z,15.90
2018-06-22T05:18:39.024Z,16.10
2018-06-22T05:21:09.588Z,16.70
2018-06-22T05:23:40.208Z,18.20
2018-06-22T05:26:10.732Z,19.70
2018-06-22T05:28:44.236Z,20.30
2018-06-22T05:31:14.846Z,21.30
2018-06-22T05:33:46.004Z,22.10
2018-06-22T05:36:16.822Z,23.10
2018-06-22T05:38:47.340Z,23.90
2018-06-22T05:41:18.060Z,24.50
2018-06-22T05:43:48.671Z,25.40
2018-06-22T05:46:19.358Z,25.90
2018-06-22T05:48:49.972Z,26.50
2018-06-22T05:53:50.820Z,26.40
2018-06-22T05:58:52.465Z,26.50
2018-06-22T06:01:23.901Z,25.70
2018-06-22T06:03:55.097Z,25.30
2018-06-22T06:06:25.834Z,25.60
2018-06-22T06:08:56.633Z,24.70
2018-06-22T06:11:27.280Z,24.50
2018-06-22T06:13:57.816Z,23.50
2018-06-22T06:16:28.373Z,21.50
2018-06-22T06:18:58.972Z,21.10
2018-06-22T06:21:29.761Z,20.00
2018-06-22T06:24:00.376Z,17.90
2018-06-22T06:26:31.660Z,17.40
2018-06-22T06:29:02.383Z,17.20
2018-06-22T06:31:33.056Z,17.00
2018-06-22T06:34:03.937Z,17.30
2018-06-22T06:36:34.587Z,17.70
2018-06-22T06:39:07.345Z,17.70
2018-06-22T06:41:37.967Z,17.90
2018-06-22T06:44:08.495Z,17.90
2018-06-22T06:46:39.760Z,17.70
2018-06-22T06:49:10.504Z,17.80
2018-06-22T06:51:40.977Z,17.90
2018-06-22T06:54:11.455Z,17.50
2018-06-22T06:56:42.051Z,17.20
2018-06-22T06:59:13.010Z,17.20
2018-06-22T07:01:43.509Z,16.90
2018-06-22T07:06:44.471Z,16.60
2018-06-22T07:09:15.833Z,16.40
2018-06-22T07:11:46.539Z,15.90
2018-06-22T07:14:17.478Z,15.50
2018-06-22T07:16:48.255Z,15.60
2018-06-22T07:19:18.973Z,15.60
2018-06-22T07:21:56.438Z,15.60
2018-06-22T07:24:27.001Z,15.90
2018-06-22T07:26:57.628Z,15.80
2018-06-22T07:29:28.735Z,15.80
2018-06-22T07:31:59.256Z,15.50
2018-06-22T07:34:30.040Z,15.10
2018-06-22T07:39:30.922Z,15.80
2018-06-22T07:42:01.788Z,15.80
2018-06-22T07:44:32.348Z,15.90
2018-06-22T07:49:33.224Z,16.30
2018-06-22T07:52:03.865Z,16.20
2018-06-22T07:54:34.795Z,16.00
2018-06-22T07:57:05.493Z,15.80
2018-06-22T08:02:06.578Z,15.60
2018-06-22T08:04:37.302Z,15.60
2018-06-22T08:07:07.848Z,15.70
2018-06-22T08:09:38.684Z,15.60
2018-06-22T08:12:09.301Z,15.30
2018-06-22T08:14:39.982Z,15.40
2018-06-22T08:17:10.668Z,15.40
2018-06-22T08:19:41.404Z,15.60
2018-06-22T08:22:11.927Z,17.20
2018-06-22T08:24:42.461Z,18.40
2018-06-22T08:27:13.065Z,18.20
2018-06-22T08:29:43.611Z,17.80
2018-06-22T08:32:14.178Z,17.80
2018-06-22T08:34:44.738Z,17.90
2018-06-22T08:37:15.273Z,17.60
2018-06-22T08:39:45.893Z,17.00
2018-06-22T08:42:19.516Z,16.70
2018-06-22T08:44:50.082Z,16.40
2018-06-22T08:47:20.668Z,16.40
2018-06-22T08:49:51.126Z,16.20
2018-06-22T08:52:28.441Z,16.70
2018-06-22T08:54:58.926Z,17.80
2018-06-22T08:57:29.462Z,19.30
2018-06-22T09:02:30.266Z,21.50
2018-06-22T09:05:00.732Z,22.80
2018-06-22T09:07:31.724Z,21.30
2018-06-22T09:10:02.532Z,20.70
2018-06-22T09:15:03.422Z,20.20
2018-06-22T09:17:34.145Z,19.70
2018-06-22T09:20:04.867Z,18.90
2018-06-22T09:22:35.409Z,19.50
2018-06-22T09:25:06.335Z,19.70
2018-06-22T09:27:36.936Z,19.00
2018-06-22T09:30:07.694Z,18.30
2018-06-22T09:32:38.192Z,18.30
2018-06-22T09:35:10.075Z,18.50
2018-06-22T09:37:40.750Z,18.40
2018-06-22T09:40:11.639Z,19.60
2018-06-22T09:42:42.259Z,20.30
2018-06-22T09:45:12.983Z,21.90
2018-06-22T09:47:43.425Z,23.20
2018-06-22T09:55:14.383Z,27.00
2018-06-22T09:57:44.881Z,24.40
2018-06-22T10:00:18.277Z,22.00
2018-06-22T10:02:49.532Z,21.30
2018-06-22T10:05:20.372Z,21.50
2018-06-22T10:07:50.891Z,22.10
2018-06-22T10:10:21.520Z,22.40
2018-06-22T10:12:52.132Z,21.40
2018-06-22T10:15:22.843Z,20.60
2018-06-22T10:17:53.498Z,20.20
2018-06-22T10:20:24.220Z,19.80
2018-06-22T10:22:54.962Z,19.60
2018-06-22T10:25:25.468Z,19.00
2018-06-22T10:27:56.241Z,19.30
2018-06-22T10:30:26.956Z,19.90
2018-06-22T10:32:57.698Z,20.10
2018-06-22T10:35:28.596Z,19.50
2018-06-22T10:40:29.329Z,17.80
2018-06-22T10:42:59.990Z,17.30
2018-06-22T10:45:31.060Z,17.10
2018-06-22T10:48:01.881Z,17.00
2018-06-22T10:50:32.701Z,17.60
2018-06-22T10:55:33.543Z,18.10
2018-06-22T10:58:04.141Z,18.40
2018-06-22T11:00:35.476Z,18.60
2018-06-22T11:03:06.370Z,18.50
2018-06-22T11:05:37.009Z,18.20
2018-06-22T11:08:07.662Z,18.40
2018-06-22T11:10:38.499Z,18.20
2018-06-22T11:13:09.246Z,17.40
2018-06-22T11:15:39.751Z,17.30
2018-06-22T11:18:10.498Z,17.20
2018-06-22T11:20:41.190Z,17.30
2018-06-22T11:23:12.061Z,17.80
2018-06-22T11:25:43.268Z,18.60
2018-06-22T11:28:13.906Z,19.10
2018-06-22T11:30:44.802Z,19.60
2018-06-22T11:33:16.369Z,19.80
2018-06-22T11:35:47.125Z,20.10
2018-06-22T11:38:18.148Z,20.10
2018-06-22T11:40:48.873Z,19.90
2018-06-22T11:43:19.556Z,19.70
2018-06-22T11:45:50.268Z,19.80
2018-06-22T11:48:21.086Z,19.60
2018-06-22T11:50:51.705Z,19.10
2018-06-22T11:53:22.348Z,19.00
2018-06-22T11:55:53.067Z,19.10
2018-06-22T11:58:23.578Z,19.20
2018-06-22T12:00:54.216Z,19.40
2018-06-22T12:03:25.097Z,19.40
2018-06-22T12:05:56.040Z,19.20
2018-06-22T12:08:26.692Z,19.20
2018-06-22T12:10:57.612Z,19.30
2018-06-22T12:13:28.188Z,19.20
2018-06-22T12:15:58.828Z,19.00
2018-06-22T12:18:29.561Z,19.20
2018-06-22T12:21:00.238Z,19.20
2018-06-22T12:23:30.865Z,19.40
2018-06-22T12:26:01.717Z,19.50
2018-06-22T12:31:02.662Z,19.40
2018-06-22T12:33:34.027Z,19.60
2018-06-22T12:36:05.868Z,19.30
2018-06-22T12:38:36.410Z,19.60
2018-06-22T12:41:07.678Z,20.00
2018-06-22T12:43:38.397Z,20.40
2018-06-22T12:46:09.065Z,20.40
2018-06-22T12:48:39.574Z,20.80
2018-06-22T12:51:10.496Z,20.30
2018-06-22T12:53:41.615Z,20.10
2018-06-22T12:56:12.390Z,20.30
2018-06-22T12:58:42.972Z,20.50
2018-06-22T13:01:13.758Z,20.70
2018-06-22T13:06:14.796Z,20.80
2018-06-22T13:08:45.639Z,20.70
2018-06-22T13:11:16.229Z,20.40
2018-06-22T13:13:46.787Z,20.50
2018-06-22T13:16:17.347Z,20.80
2018-06-22T13:18:47.992Z,20.80
2018-06-22T13:21:18.756Z,20.80
2018-06-22T13:23:49.429Z,20.70
2018-06-22T13:26:20.478Z,20.20
2018-06-22T13:28:51.539Z,19.90
2018-06-22T13:31:22.161Z,20.00
2018-06-22T13:33:52.939Z,20.00
2018-06-22T13:36:23.483Z,19.70
2018-06-22T13:38:54.783Z,19.40
2018-06-22T13:41:25.418Z,19.40
2018-06-22T13:43:56.034Z,19.20
2018-06-22T13:48:56.885Z,19.60
2018-06-22T13:51:27.435Z,19.60
2018-06-22T13:53:58.152Z,19.40
2018-06-22T13:56:28.805Z,19.00
2018-06-22T13:58:59.424Z,19.00
2018-06-22T14:01:30.477Z,19.10
2018-06-22T14:04:06.312Z,19.10
2018-06-22T14:06:42.121Z,19.10
2018-06-22T14:09:14.381Z,19.00
2018-06-22T14:11:45.084Z,18.80
2018-06-22T14:14:15.660Z,18.80
2018-06-22T14:16:46.250Z,18.60
2018-06-22T14:19:16.873Z,18.80
2018-06-22T14:21:47.578Z,19.30
2018-06-22T14:24:18.100Z,19.30
2018-06-22T14:26:48.745Z,19.20
2018-06-22T14:29:19.470Z,19.60
2018-06-22T14:31:50.270Z,19.90
2018-06-22T14:34:20.882Z,20.00
2018-06-22T14:36:51.584Z,19.40
2018-06-22T14:39:22.325Z,19.00
2018-06-22T14:41:53.079Z,19.10
2018-06-22T14:44:23.681Z,19.00
2018-06-22T14:46:54.258Z,19.30
2018-06-22T14:49:25.057Z,19.60
2018-06-22T14:52:01.529Z,19.60
2018-06-22T14:54:37.635Z,19.90
2018-06-22T14:57:13.365Z,20.00
2018-06-22T14:59:49.448Z,19.60
2018-06-22T15:02:25.256Z,19.60
2018-06-22T15:05:00.999Z,19.50
2018-06-22T15:07:36.846Z,19.50
2018-06-22T15:10:07.638Z,19.40
2018-06-22T15:12:38.410Z,19.30
2018-06-22T15:15:08.895Z,19.00
2018-06-22T15:17:45.202Z,18.90
2018-06-22T15:20:15.807Z,19.10
2018-06-22T15:22:46.510Z,18.90
2018-06-22T15:25:17.365Z,18.90
2018-06-22T15:27:48.126Z,19.00
2018-06-22T15:30:18.954Z,19.10
2018-06-22T15:32:49.740Z,19.20
2018-06-22T15:36:26.308Z,19.20
2018-06-22T15:39:02.124Z,19.60
2018-06-22T15:41:38.215Z,19.80
2018-06-22T15:44:14.074Z,19.70
2018-06-22T15:46:49.878Z,19.20
2018-06-22T15:49:25.629Z,19.10
2018-06-22T15:52:01.750Z,18.80
2018-06-22T15:54:37.488Z,18.60
2018-06-22T15:57:08.071Z,18.80
2018-06-22T15:59:38.717Z,19.20
2018-06-22T16:02:14.521Z,19.40
2018-06-22T16:04:46.066Z,19.70
2018-06-22T16:07:16.697Z,20.00
2018-06-22T16:09:52.550Z,20.10
2018-06-22T16:12:28.738Z,19.60
2018-06-22T16:15:04.633Z,19.20
2018-06-22T16:17:40.615Z,18.80
2018-06-22T16:20:16.564Z,18.80
2018-06-22T16:22:52.383Z,18.80
2018-06-22T16:25:28.222Z,18.80
2018-06-22T16:28:03.913Z,18.50
2018-06-22T16:33:05.094Z,18.60
2018-06-22T16:35:35.835Z,18.80
2018-06-22T16:38:06.542Z,19.00
2018-06-22T16:40:37.313Z,19.00
2018-06-22T16:43:07.920Z,18.90
2018-06-22T16:45:38.609Z,19.10
2018-06-22T16:48:09.317Z,19.00
2018-06-22T16:50:40.093Z,18.90
2018-06-22T16:53:10.712Z,18.90
2018-06-22T16:55:41.411Z,18.90
2018-06-22T16:58:17.031Z,19.00
2018-06-22T17:00:47.659Z,18.70
2018-06-22T17:03:18.276Z,18.50
2018-06-22T17:05:48.883Z,18.50
2018-06-22T17:08:24.612Z,18.50
2018-06-22T17:11:00.649Z,18.50
2018-06-22T17:13:36.857Z,18.50
2018-06-22T17:16:12.817Z,18.50
2018-06-22T17:18:48.753Z,18.40
2018-06-22T17:21:19.752Z,18.40
2018-06-22T17:23:50.412Z,18.40
2018-06-22T17:26:20.999Z,18.40
2018-06-22T17:28:51.693Z,18.30
2018-06-22T17:31:22.295Z,18.20
2018-06-22T17:33:53.093Z,18.30
2018-06-22T17:36:23.895Z,18.20
2018-06-22T17:38:54.650Z,18.20
2018-06-22T17:41:26.005Z,18.20
2018-06-22T17:43:56.789Z,18.10
2018-06-22T17:46:27.497Z,18.20
2018-06-22T17:48:58.280Z,18.00
2018-06-22T17:51:29.212Z,17.90
2018-06-22T17:54:00.344Z,17.70
2018-06-22T17:56:31.032Z,17.70
2018-06-22T17:59:07.015Z,18.00
2018-06-22T18:01:42.733Z,18.10
2018-06-22T18:04:18.598Z,18.10
2018-06-22T18:06:54.351Z,18.10
2018-06-22T18:09:30.518Z,17.90
2018-06-22T18:12:06.370Z,17.90
2018-06-22T18:14:36.885Z,17.70
2018-06-22T18:17:07.567Z,17.50
2018-06-22T18:19:38.248Z,17.30
2018-06-22T18:22:09.154Z,17.10
2018-06-22T18:24:39.847Z,17.00
2018-06-22T18:27:10.416Z,16.90
2018-06-22T18:29:41.202Z,16.80
2018-06-22T18:32:12.402Z,16.70
2018-06-22T18:34:43.090Z,16.60
2018-06-22T18:37:13.695Z,16.40
2018-06-22T18:39:44.501Z,16.30
2018-06-22T18:42:15.318Z,16.20
2018-06-22T18:44:45.949Z,16.10
2018-06-22T18:47:16.642Z,16.10
2018-06-22T18:52:22.693Z,16.00
2018-06-22T18:54:58.543Z,16.00
2018-06-22T18:57:34.409Z,15.80
2018-06-22T19:00:10.531Z,15.70
2018-06-22T19:02:46.520Z,15.70
2018-06-22T19:05:17.087Z,15.70
2018-06-22T19:07:47.854Z,15.60
2018-06-22T19:10:18.578Z,15.50
2018-06-22T19:12:49.272Z,15.30
2018-06-22T19:17:50.658Z,15.20
2018-06-22T19:20:21.310Z,15.00
2018-06-22T19:22:52.029Z,14.90
2018-06-22T19:25:22.765Z,14.90
2018-06-22T19:27:53.377Z,14.70
2018-06-22T19:30:23.869Z,14.60
2018-06-22T19:32:54.594Z,14.40
2018-06-22T19:35:25.462Z,14.20
2018-06-22T19:37:56.111Z,14.10
2018-06-22T19:42:56.816Z,13.90
2018-06-22T19:45:32.565Z,13.90
2018-06-22T19:48:08.490Z,13.80
2018-06-22T19:50:44.110Z,13.70
2018-06-22T19:53:21.172Z,13.70
2018-06-22T19:55:51.758Z,13.60
2018-06-22T20:00:52.492Z,13.50
2018-06-22T20:03:23.246Z,13.50
2018-06-22T20:05:53.889Z,13.40
2018-06-22T20:08:24.625Z,13.50
2018-06-22T20:10:55.339Z,13.40
2018-06-22T20:13:26.059Z,13.40
2018-06-22T20:15:56.901Z,13.50
2018-06-22T20:18:27.500Z,13.50
2018-06-22T20:20:58.292Z,13.50
2018-06-22T20:23:29.094Z,13.40
2018-06-22T20:25:59.633Z,13.50
2018-06-22T20:28:30.172Z,13.30
2018-06-22T20:31:00.912Z,13.40
2018-06-22T20:33:31.586Z,13.30
2018-06-22T20:36:07.383Z,13.30
2018-06-22T20:38:43.137Z,13.10
2018-06-22T20:41:18.932Z,13.10
2018-06-22T20:43:54.682Z,13.00
2018-06-22T20:46:30.389Z,13.00
2018-06-22T20:49:06.210Z,13.00
2018-06-22T20:51:41.200Z,12.80
2018-06-22T20:54:12.273Z,12.80
2018-06-22T20:56:43.122Z,12.70
2018-06-22T20:59:13.695Z,12.70
2018-06-22T21:01:44.434Z,12.60
2018-06-22T21:04:15.292Z,12.60
2018-06-22T21:06:45.993Z,12.60
2018-06-22T21:11:47.030Z,12.90
2018-06-22T21:14:17.718Z,12.80
2018-06-22T21:16:48.312Z,12.70
2018-06-22T21:19:19.147Z,12.70
2018-06-22T21:21:54.913Z,12.70
2018-06-22T21:24:25.540Z,12.50
2018-06-22T21:27:00.876Z,12.40
2018-06-22T21:29:36.704Z,12.40
2018-06-22T21:32:12.524Z,12.40
2018-06-22T21:34:48.758Z,12.20
2018-06-22T21:37:24.497Z,12.30
2018-06-22T21:39:55.277Z,12.10
2018-06-22T21:42:26.034Z,12.00
2018-06-22T21:44:56.714Z,12.00
2018-06-22T21:47:27.593Z,11.90
2018-06-22T21:49:58.256Z,11.90
2018-06-22T21:52:29.625Z,11.90
2018-06-22T21:55:00.807Z,11.80
2018-06-22T21:57:31.401Z,11.70
2018-06-22T22:00:01.973Z,11.70
2018-06-22T22:02:32.548Z,11.70
2018-06-22T22:05:03.305Z,11.70
2018-06-22T22:07:33.832Z,11.70
2018-06-22T22:10:05.125Z,11.60
2018-06-22T22:12:35.812Z,11.70
2018-06-22T22:15:06.623Z,11.80
2018-06-22T22:17:58.496Z,11.80
2018-06-22T22:20:29.129Z,11.90
2018-06-22T22:22:59.651Z,12.00
2018-06-22T22:25:30.267Z,12.00
2018-06-22T22:28:01.067Z,12.10
2018-06-22T22:30:32.199Z,12.10
2018-06-22T22:33:03.031Z,12.20
2018-06-22T22:35:34.078Z,12.20
2018-06-22T22:38:04.694Z,12.20
2018-06-22T22:40:35.411Z,12.30
2018-06-22T22:43:05.969Z,12.30
2018-06-22T22:45:36.786Z,12.30
2018-06-22T22:48:07.500Z,12.40
2018-06-22T22:50:38.236Z,12.40
2018-06-22T22:53:09.333Z,12.40
2018-06-22T22:55:40.085Z,12.40
2018-06-22T23:00:41.001Z,12.30
2018-06-22T23:03:12.179Z,12.30
2018-06-22T23:05:42.686Z,12.30
2018-06-22T23:08:13.191Z,12.20
2018-06-22T23:10:43.789Z,12.30
2018-06-22T23:13:14.564Z,12.20
2018-06-22T23:15:45.249Z,12.20
2018-06-22T23:18:16.224Z,12.20
2018-06-22T23:20:47.024Z,12.20
2018-06-22T23:23:33.579Z,12.20
2018-06-22T23:26:04.594Z,12.20
2018-06-22T23:28:35.329Z,12.20
2018-06-22T23:31:07.280Z,12.10
2018-06-22T23:33:37.980Z,12.00
2018-06-22T23:36:09.168Z,11.90
2018-06-22T23:38:40.284Z,12.00
2018-06-22T23:41:10.876Z,11.90
2018-06-22T23:43:41.634Z,11.80
2018-06-22T23:48:42.312Z,11.90
2018-06-22T23:51:12.930Z,11.90
2018-06-22T23:53:43.653Z,11.90
2018-06-22T23:56:14.316Z,11.90
2018-06-22T23:58:44.959Z,11.80
